Beaver Dam, WI

3:34 PM CST on November 22, 2014 (GMT -0600)
APRSWXNET Beaver Dam WI US | Change Station
CLOSE
Current Station
Personal Weather Station
Location: Beaver Dam, WI
Elevation: 904 ft
Nearby Weather Stations

Elev 904 ft 43.45 °N, 88.83 °W | Updated 14 minutes ago

Fog
Fog
--
Feels Like --
N
3.0
Wind Variable Wind from SSW
Gusts 8.0 mph

Today
High -- | Low -- °F
--% Chance of Precip.
Yesterday
High -- | Low -- °F
Precip. -- in
6:57 AM 4:24 PM
New Moon, 0% visible
Pressure 29.80 in
Visibility 0.2 miles
Clouds Overcast 300 ft
Dew Point Not available.
Humidity Not available.
Rainfall 0.00 in
Snow Depth Not available.
UV 0 out of 12
Pollen .10 out of 12
Air Quality Not available.
Flu Activity Not available.
METAR KUNU 222115Z AUTO 20007KT M1/4SM FG OVC003 04/04 A2980 RMK AO2 T00400040

More Conditions Fewer Conditions

Pressure 29.80 in
Visibility 0.2 miles
Clouds Overcast 300 ft
Dew Point Not available.
Humidity Not available.
Rainfall 0.00 in
Snow Depth Not available.
UV 0 out of 12
Pollen .10 out of 12
Air Quality Not available.
Flu Activity Not available.
METAR KUNU 222115Z AUTO 20007KT M1/4SM FG OVC003 04/04 A2980 RMK AO2 T00400040

More Conditions Fewer Conditions

10-Day Weather Forecast

Almanac

Astronomy

Nov. 22, 2014 Rise Set
Actual Time
Civil Twilight
Nautical Twilight
Astronomical Twilight
Moon
Length of Visible Light
Length of Day
Tomorrow will be .
, % of the Moon is Illuminated

Today's Extremes

State Highs State Lows

Community

WunderPhotos

Upload Photos

1,772,912 photos uploaded!

WunderBlogs® & News

Nearby

Air Quality

  Air Quality AQ Index Pollutant
Not available.

Snow Depth

Station Depth Elevation

Earthquake Activity

City Distance Mag. Time & Date
Minimum magnitude displayed is 2.5.

Coastal Water Temperatures

Place Temperature

Nearby Weather Stations